sensor_id;sensor_type;location;lat;lon;timestamp;temperature;humidity
6439;DHT22;3252;52.540;13.290;2022-10-17T00:01:30;13.60;99.90
6439;DHT22;3252;52.540;13.290;2022-10-17T00:03:33;13.60;99.90
6439;DHT22;3252;52.540;13.290;2022-10-17T00:05:40;13.70;99.90
6439;DHT22;3252;52.540;13.290;2022-10-17T00:07:42;13.70;99.90
6439;DHT22;3252;52.540;13.290;2022-10-17T00:09:45;13.70;99.90
6439;DHT22;3252;52.540;13.290;2022-10-17T00:11:47;13.70;99.90
6439;DHT22;3252;52.540;13.290;2022-10-17T00:13:50;13.70;99.90
6439;DHT22;3252;52.540;13.290;2022-10-17T00:15:56;13.70;99.90
6439;DHT22;3252;52.540;13.290;2022-10-17T00:17:58;13.80;99.90
6439;DHT22;3252;52.540;13.290;2022-10-17T00:20:00;13.70;99.90
6439;DHT22;3252;52.540;13.290;2022-10-17T00:22:03;13.70;99.90
6439;DHT22;3252;52.540;13.290;2022-10-17T00:24:05;13.80;99.90
6439;DHT22;3252;52.540;13.290;2022-10-17T00:26:08;13.70;99.90
6439;DHT22;3252;52.540;13.290;2022-10-17T00:28:11;13.80;99.90
6439;DHT22;3252;52.540;13.290;2022-10-17T00:30:14;13.80;99.90
6439;DHT22;3252;52.540;13.290;2022-10-17T00:32:18;13.80;99.90
6439;DHT22;3252;52.540;13.290;2022-10-17T00:34:20;13.80;99.90
6439;DHT22;3252;52.540;13.290;2022-10-17T00:36:26;13.80;99.90
6439;DHT22;3252;52.540;13.290;2022-10-17T00:38:28;13.80;99.90
6439;DHT22;3252;52.540;13.290;2022-10-17T00:40:30;13.80;99.90
6439;DHT22;3252;52.540;13.290;2022-10-17T00:42:33;13.80;99.90
6439;DHT22;3252;52.540;13.290;2022-10-17T00:44:59;13.80;99.90
6439;DHT22;3252;52.540;13.290;2022-10-17T00:47:03;13.80;99.90
6439;DHT22;3252;52.540;13.290;2022-10-17T00:49:11;13.90;99.90
6439;DHT22;3252;52.540;13.290;2022-10-17T00:51:14;13.90;99.90
6439;DHT22;3252;52.540;13.290;2022-10-17T00:53:17;13.90;99.90
6439;DHT22;3252;52.540;13.290;2022-10-17T00:55:23;13.90;99.90
6439;DHT22;3252;52.540;13.290;2022-10-17T00:57:27;13.90;99.90
6439;DHT22;3252;52.540;13.290;2022-10-17T00:59:32;13.90;99.90
6439;DHT22;3252;52.540;13.290;2022-10-17T01:01:35;14.00;99.90
6439;DHT22;3252;52.540;13.290;2022-10-17T01:03:37;13.90;99.90
6439;DHT22;3252;52.540;13.290;2022-10-17T01:05:41;13.90;99.90
6439;DHT22;3252;52.540;13.290;2022-10-17T01:07:45;13.90;99.90
6439;DHT22;3252;52.540;13.290;2022-10-17T01:09:48;13.90;99.90
6439;DHT22;3252;52.540;13.290;2022-10-17T01:11:54;13.90;99.90
6439;DHT22;3252;52.540;13.290;2022-10-17T01:14:01;13.90;99.90
6439;DHT22;3252;52.540;13.290;2022-10-17T01:16:10;13.90;99.90
6439;DHT22;3252;52.540;13.290;2022-10-17T01:18:22;14.00;99.90
6439;DHT22;3252;52.540;13.290;2022-10-17T01:20:57;13.90;99.90
6439;DHT22;3252;52.540;13.290;2022-10-17T01:25:28;13.90;99.90
6439;DHT22;3252;52.540;13.290;2022-10-17T01:28:05;13.90;99.90
6439;DHT22;3252;52.540;13.290;2022-10-17T01:32:55;13.90;99.90
6439;DHT22;3252;52.540;13.290;2022-10-17T01:35:04;13.90;99.90
6439;DHT22;3252;52.540;13.290;2022-10-17T01:37:17;13.80;99.90
6439;DHT22;3252;52.540;13.290;2022-10-17T01:39:27;13.80;99.90
6439;DHT22;3252;52.540;13.290;2022-10-17T01:41:38;13.80;99.90
6439;DHT22;3252;52.540;13.290;2022-10-17T01:44:04;13.80;99.90
6439;DHT22;3252;52.540;13.290;2022-10-17T01:46:13;13.80;99.90
6439;DHT22;3252;52.540;13.290;2022-10-17T01:48:22;13.80;99.90
6439;DHT22;3252;52.540;13.290;2022-10-17T01:50:29;13.70;99.90
6439;DHT22;3252;52.540;13.290;2022-10-17T01:52:36;13.70;99.90
6439;DHT22;3252;52.540;13.290;2022-10-17T01:54:42;13.70;99.90
6439;DHT22;3252;52.540;13.290;2022-10-17T01:56:48;13.70;99.90
6439;DHT22;3252;52.540;13.290;2022-10-17T01:58:55;13.70;99.90
6439;DHT22;3252;52.540;13.290;2022-10-17T02:01:00;13.70;99.90
6439;DHT22;3252;52.540;13.290;2022-10-17T02:03:08;13.70;99.90
6439;DHT22;3252;52.540;13.290;2022-10-17T02:05:13;13.70;99.90
6439;DHT22;3252;52.540;13.290;2022-10-17T02:07:14;13.70;99.90
6439;DHT22;3252;52.540;13.290;2022-10-17T02:09:19;13.60;99.90
6439;DHT22;3252;52.540;13.290;2022-10-17T02:11:22;13.60;99.90
6439;DHT22;3252;52.540;13.290;2022-10-17T02:13:34;13.60;99.90
6439;DHT22;3252;52.540;13.290;2022-10-17T02:15:45;13.60;99.90
6439;DHT22;3252;52.540;13.290;2022-10-17T02:17:57;13.60;99.90
6439;DHT22;3252;52.540;13.290;2022-10-17T02:20:09;13.60;99.90
6439;DHT22;3252;52.540;13.290;2022-10-17T02:22:26;13.60;99.90
6439;DHT22;3252;52.540;13.290;2022-10-17T02:24:35;13.60;99.90
6439;DHT22;3252;52.540;13.290;2022-10-17T02:26:46;13.60;99.90
6439;DHT22;3252;52.540;13.290;2022-10-17T02:28:57;13.60;99.90
6439;DHT22;3252;52.540;13.290;2022-10-17T02:31:05;13.60;99.90
6439;DHT22;3252;52.540;13.290;2022-10-17T02:33:12;13.70;99.90
6439;DHT22;3252;52.540;13.290;2022-10-17T02:35:19;13.70;99.90
6439;DHT22;3252;52.540;13.290;2022-10-17T02:37:27;13.70;99.90
6439;DHT22;3252;52.540;13.290;2022-10-17T02:39:30;13.80;99.90
6439;DHT22;3252;52.540;13.290;2022-10-17T02:41:34;13.80;99.90
6439;DHT22;3252;52.540;13.290;2022-10-17T02:43:37;13.90;99.90
6439;DHT22;3252;52.540;13.290;2022-10-17T02:45:40;13.90;99.90
6439;DHT22;3252;52.540;13.290;2022-10-17T02:47:50;13.90;99.90
6439;DHT22;3252;52.540;13.290;2022-10-17T02:49:55;14.00;99.90
6439;DHT22;3252;52.540;13.290;2022-10-17T02:52:02;14.10;99.90
6439;DHT22;3252;52.540;13.290;2022-10-17T02:54:11;14.10;99.90
6439;DHT22;3252;52.540;13.290;2022-10-17T02:56:18;14.10;99.90
6439;DHT22;3252;52.540;13.290;2022-10-17T02:58:24;14.20;99.90
6439;DHT22;3252;52.540;13.290;2022-10-17T03:00:28;14.20;99.90
6439;DHT22;3252;52.540;13.290;2022-10-17T03:02:38;14.20;99.90
6439;DHT22;3252;52.540;13.290;2022-10-17T03:04:42;14.30;99.90
6439;DHT22;3252;52.540;13.290;2022-10-17T03:06:46;14.30;99.90
6439;DHT22;3252;52.540;13.290;2022-10-17T03:08:48;14.30;99.90
6439;DHT22;3252;52.540;13.290;2022-10-17T03:10:51;14.30;99.90
6439;DHT22;3252;52.540;13.290;2022-10-17T03:12:54;14.40;99.90
6439;DHT22;3252;52.540;13.290;2022-10-17T03:14:57;14.40;99.90
6439;DHT22;3252;52.540;13.290;2022-10-17T03:17:00;14.40;99.90
6439;DHT22;3252;52.540;13.290;2022-10-17T03:19:02;14.40;99.90
6439;DHT22;3252;52.540;13.290;2022-10-17T03:21:04;14.40;99.90
6439;DHT22;3252;52.540;13.290;2022-10-17T03:23:06;14.50;99.90
6439;DHT22;3252;52.540;13.290;2022-10-17T03:25:08;14.50;99.90
6439;DHT22;3252;52.540;13.290;2022-10-17T03:27:12;14.50;99.90
6439;DHT22;3252;52.540;13.290;2022-10-17T03:29:14;14.50;99.90
6439;DHT22;3252;52.540;13.290;2022-10-17T03:31:16;14.50;99.90
6439;DHT22;3252;52.540;13.290;2022-10-17T03:33:19;14.50;99.90
6439;DHT22;3252;52.540;13.290;2022-10-17T03:35:21;14.50;99.90
6439;DHT22;3252;52.540;13.290;2022-10-17T03:37:24;14.50;99.90
6439;DHT22;3252;52.540;13.290;2022-10-17T03:39:26;14.60;99.90
6439;DHT22;3252;52.540;13.290;2022-10-17T03:41:28;14.60;99.90
6439;DHT22;3252;52.540;13.290;2022-10-17T03:43:31;14.60;99.90
6439;DHT22;3252;52.540;13.290;2022-10-17T03:45:35;14.60;99.90
6439;DHT22;3252;52.540;13.290;2022-10-17T03:47:37;14.60;99.90
6439;DHT22;3252;52.540;13.290;2022-10-17T03:49:39;14.60;99.90
6439;DHT22;3252;52.540;13.290;2022-10-17T03:51:41;14.60;99.90
6439;DHT22;3252;52.540;13.290;2022-10-17T03:53:47;14.60;99.90
6439;DHT22;3252;52.540;13.290;2022-10-17T03:55:50;14.60;99.90
6439;DHT22;3252;52.540;13.290;2022-10-17T03:57:52;14.60;99.90
6439;DHT22;3252;52.540;13.290;2022-10-17T03:59:57;14.60;99.90
6439;DHT22;3252;52.540;13.290;2022-10-17T04:01:59;14.60;99.90
6439;DHT22;3252;52.540;13.290;2022-10-17T04:04:02;14.60;99.90
6439;DHT22;3252;52.540;13.290;2022-10-17T04:06:08;14.60;99.90
6439;DHT22;3252;52.540;13.290;2022-10-17T04:08:12;14.60;99.90
6439;DHT22;3252;52.540;13.290;2022-10-17T04:10:50;14.60;99.90
6439;DHT22;3252;52.540;13.290;2022-10-17T04:12:52;14.60;99.90
6439;DHT22;3252;52.540;13.290;2022-10-17T04:14:54;14.60;99.90
6439;DHT22;3252;52.540;13.290;2022-10-17T04:16:58;14.60;99.90
6439;DHT22;3252;52.540;13.290;2022-10-17T04:19:02;14.60;99.90
6439;DHT22;3252;52.540;13.290;2022-10-17T04:21:11;14.60;99.90
6439;DHT22;3252;52.540;13.290;2022-10-17T04:23:13;14.60;99.90
6439;DHT22;3252;52.540;13.290;2022-10-17T04:25:15;14.60;99.90
6439;DHT22;3252;52.540;13.290;2022-10-17T04:27:20;14.60;99.90
6439;DHT22;3252;52.540;13.290;2022-10-17T04:29:23;14.60;99.90
6439;DHT22;3252;52.540;13.290;2022-10-17T04:31:28;14.60;99.90
6439;DHT22;3252;52.540;13.290;2022-10-17T04:33:50;14.60;99.90
6439;DHT22;3252;52.540;13.290;2022-10-17T04:35:56;14.50;99.90
6439;DHT22;3252;52.540;13.290;2022-10-17T04:37:58;14.50;99.90
6439;DHT22;3252;52.540;13.290;2022-10-17T04:40:00;14.50;99.90
6439;DHT22;3252;52.540;13.290;2022-10-17T04:42:05;14.50;99.90
6439;DHT22;3252;52.540;13.290;2022-10-17T04:44:09;14.50;99.90
6439;DHT22;3252;52.540;13.290;2022-10-17T04:46:15;14.40;99.90
6439;DHT22;3252;52.540;13.290;2022-10-17T04:48:19;14.40;99.90
6439;DHT22;3252;52.540;13.290;2022-10-17T04:50:22;14.40;99.90
6439;DHT22;3252;52.540;13.290;2022-10-17T04:52:44;14.40;99.90
6439;DHT22;3252;52.540;13.290;2022-10-17T04:54:46;14.40;99.90
6439;DHT22;3252;52.540;13.290;2022-10-17T04:56:48;14.40;99.90
6439;DHT22;3252;52.540;13.290;2022-10-17T04:58:50;14.40;99.90
6439;DHT22;3252;52.540;13.290;2022-10-17T05:00:53;14.30;99.90
6439;DHT22;3252;52.540;13.290;2022-10-17T05:02:59;14.30;99.90
6439;DHT22;3252;52.540;13.290;2022-10-17T05:05:02;14.40;99.90
6439;DHT22;3252;52.540;13.290;2022-10-17T05:07:06;14.30;99.90
6439;DHT22;3252;52.540;13.290;2022-10-17T05:09:20;14.30;99.90
6439;DHT22;3252;52.540;13.290;2022-10-17T05:11:24;14.30;99.90
6439;DHT22;3252;52.540;13.290;2022-10-17T05:13:27;14.30;99.90
6439;DHT22;3252;52.540;13.290;2022-10-17T05:15:29;14.30;99.90
6439;DHT22;3252;52.540;13.290;2022-10-17T05:17:31;14.30;99.90
6439;DHT22;3252;52.540;13.290;2022-10-17T05:19:33;14.30;99.90
6439;DHT22;3252;52.540;13.290;2022-10-17T05:21:35;14.40;99.90
6439;DHT22;3252;52.540;13.290;2022-10-17T05:23:40;14.30;99.90
6439;DHT22;3252;52.540;13.290;2022-10-17T05:25:42;14.30;99.90
6439;DHT22;3252;52.540;13.290;2022-10-17T05:27:45;14.40;99.90
6439;DHT22;3252;52.540;13.290;2022-10-17T05:29:48;14.40;99.90
6439;DHT22;3252;52.540;13.290;2022-10-17T05:31:59;14.40;99.90
6439;DHT22;3252;52.540;13.290;2022-10-17T05:34:02;14.40;99.90
6439;DHT22;3252;52.540;13.290;2022-10-17T05:36:07;14.40;99.90
6439;DHT22;3252;52.540;13.290;2022-10-17T05:38:09;14.40;99.90
6439;DHT22;3252;52.540;13.290;2022-10-17T05:40:14;14.40;99.90
6439;DHT22;3252;52.540;13.290;2022-10-17T05:42:16;14.40;99.90
6439;DHT22;3252;52.540;13.290;2022-10-17T05:44:19;14.50;99.90
6439;DHT22;3252;52.540;13.290;2022-10-17T05:46:27;14.40;99.90
6439;DHT22;3252;52.540;13.290;2022-10-17T05:48:29;14.50;99.90
6439;DHT22;3252;52.540;13.290;2022-10-17T05:50:31;14.50;99.90
6439;DHT22;3252;52.540;13.290;2022-10-17T05:52:39;14.50;99.90
6439;DHT22;3252;52.540;13.290;2022-10-17T05:54:45;14.60;99.90
6439;DHT22;3252;52.540;13.290;2022-10-17T05:56:51;14.60;99.90
6439;DHT22;3252;52.540;13.290;2022-10-17T05:58:55;14.70;99.90
6439;DHT22;3252;52.540;13.290;2022-10-17T06:01:06;14.70;99.90
6439;DHT22;3252;52.540;13.290;2022-10-17T06:03:09;14.70;99.90
6439;DHT22;3252;52.540;13.290;2022-10-17T06:05:13;14.70;99.90
6439;DHT22;3252;52.540;13.290;2022-10-17T06:07:24;14.70;99.90
6439;DHT22;3252;52.540;13.290;2022-10-17T06:09:27;14.70;99.90
6439;DHT22;3252;52.540;13.290;2022-10-17T06:11:30;14.80;99.90
6439;DHT22;3252;52.540;13.290;2022-10-17T06:13:34;14.80;99.90
6439;DHT22;3252;52.540;13.290;2022-10-17T06:15:43;14.80;99.90
6439;DHT22;3252;52.540;13.290;2022-10-17T06:17:45;14.80;99.90
6439;DHT22;3252;52.540;13.290;2022-10-17T06:19:47;14.80;99.90
6439;DHT22;3252;52.540;13.290;2022-10-17T06:21:49;14.80;99.90
6439;DHT22;3252;52.540;13.290;2022-10-17T06:23:55;14.90;99.90
6439;DHT22;3252;52.540;13.290;2022-10-17T06:26:10;14.90;99.90
6439;DHT22;3252;52.540;13.290;2022-10-17T06:28:13;14.90;99.90
6439;DHT22;3252;52.540;13.290;2022-10-17T06:30:17;14.90;99.90
6439;DHT22;3252;52.540;13.290;2022-10-17T06:32:19;14.90;99.90
6439;DHT22;3252;52.540;13.290;2022-10-17T06:34:21;14.90;99.90
6439;DHT22;3252;52.540;13.290;2022-10-17T06:36:24;14.90;99.90
6439;DHT22;3252;52.540;13.290;2022-10-17T06:38:26;15.00;99.90
6439;DHT22;3252;52.540;13.290;2022-10-17T06:40:30;15.00;99.90
6439;DHT22;3252;52.540;13.290;2022-10-17T06:42:33;15.00;99.90
6439;DHT22;3252;52.540;13.290;2022-10-17T06:44:47;15.00;99.90
6439;DHT22;3252;52.540;13.290;2022-10-17T06:47:08;15.00;99.90
6439;DHT22;3252;52.540;13.290;2022-10-17T06:49:10;15.00;99.90
6439;DHT22;3252;52.540;13.290;2022-10-17T06:51:18;15.10;99.90
6439;DHT22;3252;52.540;13.290;2022-10-17T06:53:27;15.10;99.90
6439;DHT22;3252;52.540;13.290;2022-10-17T06:55:41;15.00;99.90
6439;DHT22;3252;52.540;13.290;2022-10-17T06:58:06;15.10;99.90
6439;DHT22;3252;52.540;13.290;2022-10-17T07:00:31;15.10;99.90
6439;DHT22;3252;52.540;13.290;2022-10-17T07:02:34;15.10;99.90
6439;DHT22;3252;52.540;13.290;2022-10-17T07:04:36;15.20;99.90
6439;DHT22;3252;52.540;13.290;2022-10-17T07:06:39;15.20;99.90
6439;DHT22;3252;52.540;13.290;2022-10-17T07:08:48;15.20;99.90
6439;DHT22;3252;52.540;13.290;2022-10-17T07:10:53;15.30;99.90
6439;DHT22;3252;52.540;13.290;2022-10-17T07:12:56;15.30;99.90
6439;DHT22;3252;52.540;13.290;2022-10-17T07:14:59;15.40;99.90
6439;DHT22;3252;52.540;13.290;2022-10-17T07:17:01;15.40;99.90
6439;DHT22;3252;52.540;13.290;2022-10-17T07:19:07;15.50;99.90
6439;DHT22;3252;52.540;13.290;2022-10-17T07:21:13;15.50;99.90
6439;DHT22;3252;52.540;13.290;2022-10-17T07:23:15;15.60;99.90
6439;DHT22;3252;52.540;13.290;2022-10-17T07:25:17;15.70;99.90
6439;DHT22;3252;52.540;13.290;2022-10-17T07:27:25;15.70;99.90
6439;DHT22;3252;52.540;13.290;2022-10-17T07:29:27;15.70;99.90
6439;DHT22;3252;52.540;13.290;2022-10-17T07:31:39;15.70;99.90
6439;DHT22;3252;52.540;13.290;2022-10-17T07:33:42;15.80;99.90
6439;DHT22;3252;52.540;13.290;2022-10-17T07:35:45;15.80;99.90
6439;DHT22;3252;52.540;13.290;2022-10-17T07:37:47;15.90;99.90
6439;DHT22;3252;52.540;13.290;2022-10-17T07:39:52;15.90;99.90
6439;DHT22;3252;52.540;13.290;2022-10-17T07:41:53;16.00;99.90
6439;DHT22;3252;52.540;13.290;2022-10-17T07:43:57;16.00;99.90
6439;DHT22;3252;52.540;13.290;2022-10-17T07:46:05;16.10;99.90
6439;DHT22;3252;52.540;13.290;2022-10-17T07:48:07;16.20;99.90
6439;DHT22;3252;52.540;13.290;2022-10-17T07:50:09;16.20;99.90
6439;DHT22;3252;52.540;13.290;2022-10-17T07:52:14;16.30;99.90
6439;DHT22;3252;52.540;13.290;2022-10-17T07:54:16;16.30;99.90
6439;DHT22;3252;52.540;13.290;2022-10-17T07:56:18;16.40;99.90
6439;DHT22;3252;52.540;13.290;2022-10-17T07:58:24;16.40;99.90
6439;DHT22;3252;52.540;13.290;2022-10-17T08:00:28;16.50;99.90
6439;DHT22;3252;52.540;13.290;2022-10-17T08:02:30;16.50;99.90
6439;DHT22;3252;52.540;13.290;2022-10-17T08:04:32;16.60;99.90
6439;DHT22;3252;52.540;13.290;2022-10-17T08:06:36;16.60;99.90
6439;DHT22;3252;52.540;13.290;2022-10-17T08:08:39;16.60;99.90
6439;DHT22;3252;52.540;13.290;2022-10-17T08:10:41;16.70;99.90
6439;DHT22;3252;52.540;13.290;2022-10-17T08:12:43;16.70;99.90
6439;DHT22;3252;52.540;13.290;2022-10-17T08:14:45;16.80;99.90
6439;DHT22;3252;52.540;13.290;2022-10-17T08:16:47;16.80;99.90
6439;DHT22;3252;52.540;13.290;2022-10-17T08:18:49;16.80;99.90
6439;DHT22;3252;52.540;13.290;2022-10-17T08:20:51;16.90;99.90
6439;DHT22;3252;52.540;13.290;2022-10-17T08:22:53;17.00;99.90
6439;DHT22;3252;52.540;13.290;2022-10-17T08:24:57;17.10;99.90
6439;DHT22;3252;52.540;13.290;2022-10-17T08:26:59;17.10;99.90
6439;DHT22;3252;52.540;13.290;2022-10-17T08:29:01;17.20;99.90
6439;DHT22;3252;52.540;13.290;2022-10-17T08:31:05;17.20;99.90
6439;DHT22;3252;52.540;13.290;2022-10-17T08:33:07;17.30;99.90
6439;DHT22;3252;52.540;13.290;2022-10-17T08:35:10;17.30;99.90
6439;DHT22;3252;52.540;13.290;2022-10-17T08:37:12;17.40;99.90
6439;DHT22;3252;52.540;13.290;2022-10-17T08:39:14;17.50;99.90
6439;DHT22;3252;52.540;13.290;2022-10-17T08:41:28;17.50;99.90
6439;DHT22;3252;52.540;13.290;2022-10-17T08:43:48;17.60;99.90
6439;DHT22;3252;52.540;13.290;2022-10-17T08:45:54;17.60;99.90
6439;DHT22;3252;52.540;13.290;2022-10-17T08:48:01;17.70;99.90
6439;DHT22;3252;52.540;13.290;2022-10-17T08:50:06;17.80;99.90
6439;DHT22;3252;52.540;13.290;2022-10-17T08:52:17;17.90;99.90
6439;DHT22;3252;52.540;13.290;2022-10-17T08:54:24;18.00;99.90
6439;DHT22;3252;52.540;13.290;2022-10-17T08:56:38;18.00;99.90
6439;DHT22;3252;52.540;13.290;2022-10-17T08:58:40;18.20;99.90
6439;DHT22;3252;52.540;13.290;2022-10-17T09:01:02;18.30;99.90
6439;DHT22;3252;52.540;13.290;2022-10-17T09:03:17;18.50;99.90
6439;DHT22;3252;52.540;13.290;2022-10-17T09:05:35;18.60;99.90
6439;DHT22;3252;52.540;13.290;2022-10-17T09:07:43;18.60;99.90
6439;DHT22;3252;52.540;13.290;2022-10-17T09:09:53;18.60;99.90
6439;DHT22;3252;52.540;13.290;2022-10-17T09:12:04;18.70;99.90
6439;DHT22;3252;52.540;13.290;2022-10-17T09:14:25;18.70;99.90
6439;DHT22;3252;52.540;13.290;2022-10-17T09:16:38;18.70;99.90
6439;DHT22;3252;52.540;13.290;2022-10-17T09:18:49;18.80;99.90
6439;DHT22;3252;52.540;13.290;2022-10-17T09:20:53;18.90;99.90
6439;DHT22;3252;52.540;13.290;2022-10-17T09:23:00;18.90;99.90
6439;DHT22;3252;52.540;13.290;2022-10-17T09:25:08;19.00;99.90
6439;DHT22;3252;52.540;13.290;2022-10-17T09:27:21;19.00;99.90
6439;DHT22;3252;52.540;13.290;2022-10-17T09:29:25;19.00;99.90
6439;DHT22;3252;52.540;13.290;2022-10-17T09:31:31;19.10;99.90
6439;DHT22;3252;52.540;13.290;2022-10-17T09:33:37;19.10;99.90
6439;DHT22;3252;52.540;13.290;2022-10-17T09:35:40;19.30;99.90
6439;DHT22;3252;52.540;13.290;2022-10-17T09:37:43;19.40;99.90
6439;DHT22;3252;52.540;13.290;2022-10-17T09:39:45;19.40;99.90
6439;DHT22;3252;52.540;13.290;2022-10-17T09:41:50;19.50;99.90
6439;DHT22;3252;52.540;13.290;2022-10-17T09:43:55;19.60;99.90
6439;DHT22;3252;52.540;13.290;2022-10-17T09:46:04;19.60;99.90
6439;DHT22;3252;52.540;13.290;2022-10-17T09:48:10;19.60;99.90
6439;DHT22;3252;52.540;13.290;2022-10-17T09:50:21;19.70;99.90
6439;DHT22;3252;52.540;13.290;2022-10-17T09:52:26;19.70;99.90
6439;DHT22;3252;52.540;13.290;2022-10-17T09:54:37;19.80;99.90
6439;DHT22;3252;52.540;13.290;2022-10-17T09:56:55;19.90;99.90
6439;DHT22;3252;52.540;13.290;2022-10-17T09:58:59;20.00;99.90
6439;DHT22;3252;52.540;13.290;2022-10-17T10:01:14;20.00;99.90
6439;DHT22;3252;52.540;13.290;2022-10-17T10:03:18;20.10;99.90
6439;DHT22;3252;52.540;13.290;2022-10-17T10:05:20;20.20;99.90
6439;DHT22;3252;52.540;13.290;2022-10-17T10:07:23;20.20;99.90
6439;DHT22;3252;52.540;13.290;2022-10-17T10:09:27;20.30;99.90
6439;DHT22;3252;52.540;13.290;2022-10-17T10:11:45;20.40;99.90
6439;DHT22;3252;52.540;13.290;2022-10-17T10:13:48;20.50;99.90
6439;DHT22;3252;52.540;13.290;2022-10-17T10:15:52;20.60;99.90
6439;DHT22;3252;52.540;13.290;2022-10-17T10:17:54;20.70;99.90
6439;DHT22;3252;52.540;13.290;2022-10-17T10:19:56;20.80;99.90
6439;DHT22;3252;52.540;13.290;2022-10-17T10:22:00;20.90;99.90
6439;DHT22;3252;52.540;13.290;2022-10-17T10:24:05;20.90;99.90
6439;DHT22;3252;52.540;13.290;2022-10-17T10:26:19;21.10;99.90
6439;DHT22;3252;52.540;13.290;2022-10-17T10:28:25;21.20;99.90
6439;DHT22;3252;52.540;13.290;2022-10-17T10:30:29;21.30;99.90
6439;DHT22;3252;52.540;13.290;2022-10-17T10:32:34;21.40;99.90
6439;DHT22;3252;52.540;13.290;2022-10-17T10:34:42;21.70;99.90
6439;DHT22;3252;52.540;13.290;2022-10-17T10:36:56;22.00;99.90
6439;DHT22;3252;52.540;13.290;2022-10-17T10:38:59;22.20;99.90
6439;DHT22;3252;52.540;13.290;2022-10-17T10:41:02;22.20;99.90
6439;DHT22;3252;52.540;13.290;2022-10-17T10:43:05;22.20;99.90
6439;DHT22;3252;52.540;13.290;2022-10-17T10:45:15;22.70;99.90
6439;DHT22;3252;52.540;13.290;2022-10-17T10:47:21;22.80;99.40
6439;DHT22;3252;52.540;13.290;2022-10-17T10:49:31;22.80;99.80
6439;DHT22;3252;52.540;13.290;2022-10-17T10:51:37;22.90;99.40
6439;DHT22;3252;52.540;13.290;2022-10-17T10:53:44;22.90;99.50
6439;DHT22;3252;52.540;13.290;2022-10-17T10:55:50;23.10;99.30
6439;DHT22;3252;52.540;13.290;2022-10-17T10:57:56;23.40;98.80
6439;DHT22;3252;52.540;13.290;2022-10-17T11:00:04;24.20;98.30
6439;DHT22;3252;52.540;13.290;2022-10-17T11:02:16;25.00;95.30
6439;DHT22;3252;52.540;13.290;2022-10-17T11:04:26;26.40;91.40
6439;DHT22;3252;52.540;13.290;2022-10-17T11:06:35;26.90;86.90
6439;DHT22;3252;52.540;13.290;2022-10-17T11:08:46;26.80;85.00
6439;DHT22;3252;52.540;13.290;2022-10-17T11:11:04;26.40;89.10
6439;DHT22;3252;52.540;13.290;2022-10-17T11:13:10;26.50;85.60
6439;DHT22;3252;52.540;13.290;2022-10-17T11:15:19;26.80;81.50
6439;DHT22;3252;52.540;13.290;2022-10-17T11:17:33;26.80;82.00
6439;DHT22;3252;52.540;13.290;2022-10-17T11:19:41;26.80;81.70
6439;DHT22;3252;52.540;13.290;2022-10-17T11:21:51;27.10;79.20
6439;DHT22;3252;52.540;13.290;2022-10-17T11:24:00;27.20;76.30
6439;DHT22;3252;52.540;13.290;2022-10-17T11:26:07;27.30;77.70
6439;DHT22;3252;52.540;13.290;2022-10-17T11:28:13;27.50;75.40
6439;DHT22;3252;52.540;13.290;2022-10-17T11:30:16;27.90;73.70
6439;DHT22;3252;52.540;13.290;2022-10-17T11:32:21;27.90;69.50
6439;DHT22;3252;52.540;13.290;2022-10-17T11:34:25;28.10;70.90
6439;DHT22;3252;52.540;13.290;2022-10-17T11:36:31;28.30;69.30
6439;DHT22;3252;52.540;13.290;2022-10-17T11:38:40;28.30;66.90
6439;DHT22;3252;52.540;13.290;2022-10-17T11:40:46;28.70;67.20
6439;DHT22;3252;52.540;13.290;2022-10-17T11:42:52;28.80;65.10
6439;DHT22;3252;52.540;13.290;2022-10-17T11:44:59;28.70;63.10
6439;DHT22;3252;52.540;13.290;2022-10-17T11:47:10;28.40;63.60
6439;DHT22;3252;52.540;13.290;2022-10-17T11:49:17;27.90;64.20
6439;DHT22;3252;52.540;13.290;2022-10-17T11:51:21;27.60;65.80
6439;DHT22;3252;52.540;13.290;2022-10-17T11:53:26;27.50;68.00
6439;DHT22;3252;52.540;13.290;2022-10-17T11:55:31;27.40;67.80
6439;DHT22;3252;52.540;13.290;2022-10-17T11:57:50;27.30;69.40
6439;DHT22;3252;52.540;13.290;2022-10-17T12:00:02;27.40;69.30
6439;DHT22;3252;52.540;13.290;2022-10-17T12:02:18;27.80;69.50
6439;DHT22;3252;52.540;13.290;2022-10-17T12:04:29;28.40;65.40
6439;DHT22;3252;52.540;13.290;2022-10-17T12:06:44;29.30;62.30
6439;DHT22;3252;52.540;13.290;2022-10-17T12:08:53;30.20;59.40
6439;DHT22;3252;52.540;13.290;2022-10-17T12:11:03;30.00;56.70
6439;DHT22;3252;52.540;13.290;2022-10-17T12:13:48;29.80;57.70
6439;DHT22;3252;52.540;13.290;2022-10-17T12:15:51;30.70;55.60
6439;DHT22;3252;52.540;13.290;2022-10-17T12:17:55;31.20;54.10
6439;DHT22;3252;52.540;13.290;2022-10-17T12:20:16;31.10;53.80
6439;DHT22;3252;52.540;13.290;2022-10-17T12:22:24;31.60;53.20
6439;DHT22;3252;52.540;13.290;2022-10-17T12:24:38;32.30;52.10
6439;DHT22;3252;52.540;13.290;2022-10-17T12:26:43;32.10;51.60
6439;DHT22;3252;52.540;13.290;2022-10-17T12:28:45;31.60;52.00
6439;DHT22;3252;52.540;13.290;2022-10-17T12:30:53;31.30;52.40
6439;DHT22;3252;52.540;13.290;2022-10-17T12:33:03;30.60;53.50
6439;DHT22;3252;52.540;13.290;2022-10-17T12:35:18;30.10;55.00
6439;DHT22;3252;52.540;13.290;2022-10-17T12:40:01;28.80;56.90
6439;DHT22;3252;52.540;13.290;2022-10-17T12:42:48;28.40;58.60
6439;DHT22;3252;52.540;13.290;2022-10-17T12:44:50;27.90;59.80
6439;DHT22;3252;52.540;13.290;2022-10-17T12:46:55;27.40;62.50
6439;DHT22;3252;52.540;13.290;2022-10-17T12:49:17;27.10;64.70
6439;DHT22;3252;52.540;13.290;2022-10-17T12:51:20;26.80;67.20
6439;DHT22;3252;52.540;13.290;2022-10-17T12:53:30;26.40;68.50
6439;DHT22;3252;52.540;13.290;2022-10-17T12:55:35;26.10;70.80
6439;DHT22;3252;52.540;13.290;2022-10-17T12:57:50;26.00;72.60
6439;DHT22;3252;52.540;13.290;2022-10-17T12:59:54;25.90;74.10
6439;DHT22;3252;52.540;13.290;2022-10-17T13:01:58;25.80;75.50
6439;DHT22;3252;52.540;13.290;2022-10-17T13:04:00;25.70;77.00
6439;DHT22;3252;52.540;13.290;2022-10-17T13:06:06;25.60;77.40
6439;DHT22;3252;52.540;13.290;2022-10-17T13:08:16;25.50;78.60
6439;DHT22;3252;52.540;13.290;2022-10-17T13:10:22;25.40;80.20
6439;DHT22;3252;52.540;13.290;2022-10-17T13:12:25;25.30;81.20
6439;DHT22;3252;52.540;13.290;2022-10-17T13:14:31;25.20;82.00
6439;DHT22;3252;52.540;13.290;2022-10-17T13:16:36;25.20;83.10
6439;DHT22;3252;52.540;13.290;2022-10-17T13:18:38;25.10;84.10
6439;DHT22;3252;52.540;13.290;2022-10-17T13:20:40;25.00;84.30
6439;DHT22;3252;52.540;13.290;2022-10-17T13:22:44;25.00;85.20
6439;DHT22;3252;52.540;13.290;2022-10-17T13:24:46;24.90;85.90
6439;DHT22;3252;52.540;13.290;2022-10-17T13:26:49;24.90;86.40
6439;DHT22;3252;52.540;13.290;2022-10-17T13:29:01;24.90;87.00
6439;DHT22;3252;52.540;13.290;2022-10-17T13:31:05;24.90;87.40
6439;DHT22;3252;52.540;13.290;2022-10-17T13:33:30;24.90;88.00
6439;DHT22;3252;52.540;13.290;2022-10-17T13:35:35;24.90;88.00
6439;DHT22;3252;52.540;13.290;2022-10-17T13:37:39;24.90;88.30
6439;DHT22;3252;52.540;13.290;2022-10-17T13:39:44;24.80;89.10